West Wyoming, Pennsylvania
Current Conditions -  °F | °C
As of 6:54 AM on Monday 22 Dec 2014 (Local Time) from KAVP Reporting Station
Overcast Overcast  
Wind Chill: 31°   Ceiling: 1600
Heat Index: 31°   Visibility: 9mi
Dew Point: 24°   Wind: 0mph
Humidity: 76%   Direction: NA
Pressure: 30.26"   Gusts: NA
Location:  41.3369°N, 75.8786°W
Report Text: KAVP 221154Z AUTO 00000KT 9SM OVC016 M01/M04 A3026 RMK AO2 SLP256 T10061044 11006 21011 55007
Loading
Personal Weather Stations






























Interactive Weather Map New forecast layout! Learn more

10-Day Weather Forecast

Advertisements
Track Severe Weather on mobile